Time;durP1;ratioP1;P1;durP2;ratioP2;P2;SDS_P1;SDS_P2;PMS_P1;PMS_P2;Temp;Humidity;BMP_temperature;BMP_pressure;BME280_temperature;BME280_humidity;BME280_pressure;Samples;Min_cycle;Max_cycle;Signal;HPM_P1;HPM_P2
2023/01/31 00:01:16;;;;;;;29.50;6.70;;;;;;;2.99;100.00;99779.16;5071156;56;1136825;-67
2023/01/31 00:06:38;;;;;;;22.22;4.30;;;;;;;2.99;100.00;99782.23;5097694;56;1136894;-65
2023/01/31 00:11:44;;;;;;;18.53;3.90;;;;;;;2.97;100.00;99791.47;5117627;56;1136828;-67
2023/01/31 00:16:51;;;;;;;22.30;3.63;;;;;;;2.98;100.00;99793.62;5106418;55;1136691;-68
2023/01/31 00:21:56;;;;;;;22.52;3.95;;;;;;;2.99;100.00;99807.89;5130982;55;1136624;-68
2023/01/31 00:27:02;;;;;;;16.47;3.07;;;;;;;3.00;100.00;99802.20;5150799;55;1136679;-67
2023/01/31 00:32:08;;;;;;;34.20;2.30;;;;;;;2.97;100.00;99812.36;5130716;55;1136822;-66
2023/01/31 00:37:14;;;;;;;18.80;3.90;;;;;;;2.98;100.00;99820.58;5130928;55;1136995;-67
2023/01/31 00:42:20;;;;;;;27.10;4.47;;;;;;;2.97;100.00;99824.11;5151281;55;1136568;-66
2023/01/31 00:47:25;;;;;;;19.13;4.53;;;;;;;2.96;100.00;99830.27;5098943;55;1136846;-69
2023/01/31 00:52:31;;;;;;;13.60;2.53;;;;;;;2.95;100.00;99831.66;5119559;55;1136654;-66
2023/01/31 00:57:37;;;;;;;15.37;2.77;;;;;;;2.93;100.00;99839.58;5117314;56;1136715;-67
2023/01/31 01:02:43;;;;;;;15.53;3.80;;;;;;;2.88;100.00;99855.15;5105429;55;1136847;-68
2023/01/31 01:07:48;;;;;;;16.50;3.70;;;;;;;2.88;100.00;99855.15;5202222;55;1136875;-66
2023/01/31 01:12:54;;;;;;;13.50;2.37;;;;;;;2.88;100.00;99860.38;5222577;55;1136796;-64
2023/01/31 01:18:00;;;;;;;15.88;2.67;;;;;;;2.85;100.00;99864.45;5159866;55;1136887;-66
2023/01/31 01:23:06;;;;;;;11.70;3.30;;;;;;;2.84;100.00;99879.28;5115437;56;1136571;-69
2023/01/31 01:28:11;;;;;;;15.78;2.72;;;;;;;2.82;100.00;99881.13;5115594;56;1136820;-68
2023/01/31 01:33:17;;;;;;;10.23;1.93;;;;;;;2.80;100.00;99889.52;5135510;56;1136712;-65
2023/01/31 01:38:23;;;;;;;15.43;4.27;;;;;;;2.74;100.00;99892.48;5115233;56;1136718;-68
2023/01/31 01:43:50;;;;;;;14.30;5.17;;;;;;;2.73;100.00;99899.94;5128703;55;1136811;-69
2023/01/31 01:49:04;;;;;;;9.58;2.17;;;;;;;2.70;100.00;99913.16;5054016;56;1136704;-64
2023/01/31 01:54:15;;;;;;;9.47;1.87;;;;;;;2.67;100.00;99924.60;5116254;56;1134555;-68
2023/01/31 01:59:25;;;;;;;18.17;1.80;;;;;;;2.66;100.00;99933.82;5116495;56;1134692;-67
2023/01/31 02:04:36;;;;;;;11.00;2.97;;;;;;;2.65;100.00;99951.25;5135694;56;1136938;-66
2023/01/31 02:09:53;;;;;;;10.43;2.13;;;;;;;2.65;100.00;99952.55;5115770;56;1136976;-66
2023/01/31 02:14:59;;;;;;;6.33;1.67;;;;;;;2.66;100.00;99959.47;5109479;56;1136735;-68
2023/01/31 02:20:43;;;;;;;6.78;1.90;;;;;;;2.66;100.00;99965.14;5116605;56;1134683;-69
2023/01/31 02:26:02;;;;;;;9.97;1.87;;;;;;;2.66;100.00;99974.28;5134787;56;1134539;-67
2023/01/31 02:31:20;;;;;;;13.07;2.30;;;;;;;2.64;100.00;99990.48;5116450;56;1134622;-66
2023/01/31 02:36:56;;;;;;;9.17;2.23;;;;;;;2.63;100.00;99998.78;5114845;56;1136774;-67
2023/01/31 02:42:13;;;;;;;18.27;3.83;;;;;;;2.63;100.00;100017.05;5136058;56;1134802;-64
2023/01/31 02:47:59;;;;;;;6.77;1.73;;;;;;;2.58;100.00;100020.39;5196052;55;1138910;-67
2023/01/31 02:53:24;;;;;;;9.93;2.42;;;;;;;2.57;100.00;100025.23;5153188;55;1136825;-68
2023/01/31 02:58:35;;;;;;;17.23;2.40;;;;;;;2.54;100.00;100039.74;5202581;55;1136744;-66
2023/01/31 03:03:41;;;;;;;14.13;4.03;;;;;;;2.55;100.00;100058.86;5222798;55;1138648;-69
2023/01/31 03:08:47;;;;;;;12.40;2.40;;;;;;;2.53;100.00;100062.00;5185288;55;1138666;-68
2023/01/31 03:14:26;;;;;;;10.07;1.67;;;;;;;2.53;100.00;100074.59;4962165;57;1138850;-67
2023/01/31 03:19:55;;;;;;;11.07;2.00;;;;;;;2.56;100.00;100080.97;4955954;57;1138771;-67
2023/01/31 03:25:04;;;;;;;15.63;2.77;;;;;;;2.55;100.00;100089.72;4883990;59;1138890;-67
2023/01/31 03:30:17;;;;;;;6.85;2.22;;;;;;;2.54;100.00;100105.46;4865315;59;1138799;-67
2023/01/31 03:35:27;;;;;;;11.00;2.40;;;;;;;2.53;100.00;100121.58;4865530;59;1137089;-67
2023/01/31 03:40:41;;;;;;;16.95;2.40;;;;;;;2.56;100.00;100138.86;4883920;58;1138809;-65
2023/01/31 03:45:52;;;;;;;17.80;3.70;;;;;;;2.54;100.00;100138.09;4864910;58;1139033;-69
2023/01/31 03:51:03;;;;;;;6.40;1.87;;;;;;;2.56;100.00;100145.39;4813406;59;1138910;-69
2023/01/31 03:56:34;;;;;;;17.48;3.55;;;;;;;2.57;100.00;100144.47;4808754;59;1136918;-65
2023/01/31 04:01:44;;;;;;;15.87;2.70;;;;;;;2.54;100.00;100140.24;5048273;57;1138751;-68
2023/01/31 04:06:52;;;;;;;11.43;3.80;;;;;;;2.54;100.00;100154.59;5053793;56;1138771;-69
2023/01/31 04:12:02;;;;;;;10.38;3.17;;;;;;;2.52;100.00;100163.42;5097158;56;1138965;-65
2023/01/31 04:17:08;;;;;;;14.80;3.45;;;;;;;2.50;100.00;100162.65;5108081;55;1138967;-69
2023/01/31 04:22:14;;;;;;;13.23;3.17;;;;;;;2.46;100.00;100166.71;5150430;55;1138851;-65
2023/01/31 04:27:20;;;;;;;10.07;2.80;;;;;;;2.44;100.00;100188.61;5130646;55;1138685;-68
2023/01/31 04:32:26;;;;;;;11.20;2.70;;;;;;;2.44;100.00;100182.09;5146874;55;1138776;-65
2023/01/31 04:37:32;;;;;;;12.60;2.67;;;;;;;2.42;100.00;100191.30;5118411;55;1138787;-67
2023/01/31 04:42:37;;;;;;;13.23;3.17;;;;;;;2.42;100.00;100208.27;5097067;56;1139003;-70
2023/01/31 04:47:43;;;;;;;8.57;3.43;;;;;;;2.41;100.00;100207.88;5098060;56;1138622;-68
2023/01/31 04:52:52;;;;;;;12.80;2.90;;;;;;;2.42;100.00;100215.24;5151066;55;1136629;-66
2023/01/31 04:57:58;;;;;;;8.07;2.63;;;;;;;2.38;100.00;100221.52;5119581;55;1142109;-67
2023/01/31 05:03:04;;;;;;;21.37;4.45;;;;;;;2.34;100.00;100216.91;5105643;55;1136757;-69
2023/01/31 05:08:11;;;;;;;19.10;5.20;;;;;;;2.35;100.00;100232.95;5097603;55;1139009;-70
2023/01/31 05:13:17;;;;;;;18.67;2.90;;;;;;;2.34;100.00;100240.85;5209639;55;1138838;-67
2023/01/31 05:18:23;;;;;;;6.00;2.67;;;;;;;2.32;100.00;100246.59;5154769;55;1138768;-66
2023/01/31 05:23:31;;;;;;;9.37;2.60;;;;;;;2.31;100.00;100236.62;5115900;55;1136745;-66
2023/01/31 05:28:37;;;;;;;25.87;4.07;;;;;;;2.29;100.00;100243.67;5138285;55;1136538;-67
2023/01/31 05:33:43;;;;;;;12.87;3.93;;;;;;;2.28;100.00;100242.47;5117107;55;1138735;-68
2023/01/31 05:38:49;;;;;;;13.70;4.90;;;;;;;2.26;100.00;100264.72;5197784;55;1138826;-70
2023/01/31 05:43:55;;;;;;;15.83;5.50;;;;;;;2.26;100.00;100278.22;5191540;55;1138889;-69
2023/01/31 05:49:01;;;;;;;18.10;4.17;;;;;;;2.26;100.00;100275.16;5166543;55;1138824;-67
2023/01/31 05:54:08;;;;;;;12.33;3.67;;;;;;;2.20;100.00;100285.87;5135882;55;1138882;-68
2023/01/31 05:59:14;;;;;;;16.17;4.17;;;;;;;2.21;100.00;100288.86;5193952;55;1138954;-68
2023/01/31 06:04:20;;;;;;;13.53;4.20;;;;;;;2.21;100.00;100299.76;5146457;55;1138960;-69
2023/01/31 06:09:26;;;;;;;12.77;3.97;;;;;;;2.18;100.00;100304.66;5140923;55;1139168;-68
2023/01/31 06:14:32;;;;;;;11.87;4.37;;;;;;;2.15;100.00;100299.58;5126048;55;1138741;-67
2023/01/31 06:19:38;;;;;;;17.73;4.03;;;;;;;2.15;100.00;100319.59;5091737;55;1138867;-67
2023/01/31 06:24:45;;;;;;;16.17;4.13;;;;;;;2.11;100.00;100323.67;5046927;56;1138924;-67
2023/01/31 06:29:51;;;;;;;17.50;5.10;;;;;;;2.11;100.00;100331.96;5081392;55;1138813;-69
2023/01/31 06:34:57;;;;;;;14.27;5.63;;;;;;;2.09;100.00;100333.33;5143383;55;1138828;-70
2023/01/31 06:40:03;;;;;;;19.50;4.17;;;;;;;2.09;100.00;100335.94;5125621;55;1138872;-67
2023/01/31 06:45:10;;;;;;;61.80;10.65;;;;;;;2.05;100.00;100351.80;5104437;55;1138633;-66
2023/01/31 06:50:17;;;;;;;110.57;34.30;;;;;;;2.03;100.00;100366.66;5118167;55;1140935;-71
2023/01/31 06:55:22;;;;;;;22.87;7.77;;;;;;;2.05;100.00;100355.25;5131496;55;1142833;-67
2023/01/31 07:00:29;;;;;;;198.80;75.07;;;;;;;2.04;100.00;100356.62;5106592;55;1138578;-71
2023/01/31 07:05:37;;;;;;;129.50;31.40;;;;;;;2.05;100.00;100374.81;5100178;55;1143009;-67
2023/01/31 07:10:44;;;;;;;82.60;15.93;;;;;;;2.05;100.00;100376.11;5132377;55;1143009;-71
2023/01/31 07:15:50;;;;;;;228.47;47.63;;;;;;;2.06;100.00;100386.94;5117423;55;1141059;-69
2023/01/31 07:20:55;;;;;;;21.17;6.80;;;;;;;2.05;100.00;100381.33;5127385;55;1142909;-71
2023/01/31 07:26:06;;;;;;;22.87;4.93;;;;;;;2.07;100.00;100391.24;5160282;55;1138739;-65
2023/01/31 07:31:14;;;;;;;13.50;3.33;;;;;;;2.09;100.00;100395.09;5126688;55;1139065;-69
2023/01/31 07:36:25;;;;;;;14.40;4.30;;;;;;;2.10;100.00;100396.78;5149555;55;1145703;-65
2023/01/31 07:41:27;;;;;;;6.33;3.03;;;;;;;2.15;100.00;100403.08;5145706;55;1138703;-66
2023/01/31 07:46:34;;;;;;;16.60;3.10;;;;;;;2.15;100.00;100405.23;5127851;55;1136836;-66
2023/01/31 07:51:41;;;;;;;5.67;1.90;;;;;;;2.18;100.00;100413.38;5125652;55;1138667;-66
2023/01/31 07:56:46;;;;;;;12.03;2.40;;;;;;;2.20;100.00;100415.47;5144575;55;1136690;-68
2023/01/31 08:07:15;;;;;;;13.62;2.50;;;;;;;2.26;100.00;100419.97;5125979;55;1138695;-66
2023/01/31 08:12:21;;;;;;;14.65;2.10;;;;;;;2.26;100.00;100432.17;5077824;55;1138766;-66
2023/01/31 08:17:27;;;;;;;10.43;2.20;;;;;;;2.31;100.00;100444.08;5145384;55;1138836;-67
2023/01/31 08:22:33;;;;;;;13.63;2.47;;;;;;;2.42;100.00;100427.50;5125307;55;1139002;-65
2023/01/31 08:27:39;;;;;;;9.38;2.42;;;;;;;2.46;100.00;100429.02;5128268;55;1138872;-66
2023/01/31 08:32:45;;;;;;;20.03;2.27;;;;;;;2.53;100.00;100427.45;5145763;55;1136831;-66
2023/01/31 08:37:51;;;;;;;11.93;2.70;;;;;;;2.54;100.00;100435.67;5139823;55;1138943;-67
2023/01/31 08:42:59;;;;;;;7.57;2.93;;;;;;;2.59;100.00;100441.55;5120902;55;1138854;-63
2023/01/31 08:48:05;;;;;;;11.33;2.55;;;;;;;2.61;100.00;100439.22;5156431;55;1136603;-66
2023/01/31 08:53:11;;;;;;;12.28;3.70;;;;;;;2.61;100.00;100442.29;5131522;55;1138914;-68
2023/01/31 08:58:17;;;;;;;11.00;3.13;;;;;;;2.59;100.00;100448.91;5122032;55;1138941;-66
2023/01/31 09:03:23;;;;;;;9.77;2.37;;;;;;;2.58;100.00;100450.29;5146757;55;1138880;-67
2023/01/31 09:08:30;;;;;;;13.80;3.03;;;;;;;2.60;100.00;100449.27;5129957;55;1136784;-68
2023/01/31 09:13:36;;;;;;;10.37;2.40;;;;;;;2.67;100.00;100448.09;5123233;55;1138958;-67
2023/01/31 09:18:43;;;;;;;14.50;2.67;;;;;;;2.71;100.00;100453.56;5154279;55;1138937;-65
2023/01/31 09:23:55;;;;;;;21.40;3.03;;;;;;;2.73;100.00;100451.73;5132917;55;1138828;-65
2023/01/31 09:29:01;;;;;;;10.88;2.85;;;;;;;2.75;100.00;100459.50;5142260;55;1138709;-67
2023/01/31 09:34:08;;;;;;;16.50;2.40;;;;;;;2.79;100.00;100464.48;5129986;55;1138952;-70
2023/01/31 09:39:14;;;;;;;19.95;4.95;;;;;;;2.82;100.00;100459.12;5163218;55;1138761;-71
2023/01/31 09:44:27;;;;;;;12.73;1.57;;;;;;;2.88;100.00;100457.16;5146762;55;1138784;-75
2023/01/31 09:49:38;;;;;;;12.60;2.83;;;;;;;2.88;100.00;100446.25;5129689;55;1138786;-70
2023/01/31 09:54:46;;;;;;;18.03;4.63;;;;;;;2.93;100.00;100444.25;5153821;55;1138878;-72
2023/01/31 10:00:16;;;;;;;14.00;2.00;;;;;;;3.01;100.00;100447.36;5141900;55;1138739;-71
2023/01/31 10:05:32;;;;;;;10.70;2.00;;;;;;;3.01;100.00;100443.45;5035909;56;1138893;-70
2023/01/31 10:10:56;;;;;;;14.47;2.97;;;;;;;3.02;100.00;100458.20;5048488;56;1138809;-73
2023/01/31 10:16:07;;;;;;;16.50;2.60;;;;;;;3.04;100.00;100452.91;5054454;56;1138853;-69
2023/01/31 10:21:17;;;;;;;7.65;1.60;;;;;;;3.05;100.00;100448.92;5029445;56;1139046;-69
2023/01/31 10:26:32;;;;;;;7.83;3.42;;;;;;;3.12;100.00;100452.06;5041235;56;1136768;-67
2023/01/31 10:31:59;;;;;;;15.23;2.17;;;;;;;3.16;100.00;100444.02;5135412;55;1136699;-68
2023/01/31 10:37:16;;;;;;;6.65;1.60;;;;;;;3.19;100.00;100440.41;5104512;55;1138709;-67
2023/01/31 10:42:37;;;;;;;14.10;2.10;;;;;;;3.17;100.00;100437.02;5080150;55;1136837;-69
2023/01/31 10:48:15;;;;;;;6.95;1.87;;;;;;;3.14;100.00;100437.16;5118319;55;1138905;-65
2023/01/31 10:54:05;;;;;;;10.83;1.93;;;;;;;3.13;100.00;100429.78;5094561;55;1136632;-76
2023/01/31 10:59:35;;;;;;;9.53;1.45;;;;;;;3.10;100.00;100422.09;5092205;55;1138791;-73
2023/01/31 11:04:44;;;;;;;14.87;2.13;;;;;;;3.16;100.00;100426.19;5092635;55;1136816;-70
2023/01/31 11:09:53;;;;;;;5.53;1.73;;;;;;;3.18;100.00;100423.04;5107418;55;1138986;-68
2023/01/31 11:15:10;;;;;;;10.93;2.27;;;;;;;3.21;100.00;100414.20;5069959;55;1136842;-67
2023/01/31 11:20:37;;;;;;;8.58;2.05;;;;;;;3.18;100.00;100409.52;5076227;55;1138925;-70
2023/01/31 11:25:50;;;;;;;10.87;2.30;;;;;;;3.23;100.00;100403.19;5128610;55;1136798;-66
2023/01/31 11:30:57;;;;;;;10.57;1.47;;;;;;;3.25;100.00;100395.67;5145106;55;1138855;-72
2023/01/31 11:36:12;;;;;;;10.07;2.90;;;;;;;3.26;100.00;100381.68;5100274;55;1138977;-66
2023/01/31 11:41:34;;;;;;;11.88;1.75;;;;;;;3.32;100.00;100379.23;5126238;55;1138887;-67
2023/01/31 11:46:59;;;;;;;19.43;3.50;;;;;;;3.32;100.00;100370.08;5132613;55;1138790;-68
2023/01/31 11:52:18;;;;;;;14.13;2.40;;;;;;;3.32;100.00;100364.40;4975574;57;1138838;-66
2023/01/31 11:57:28;;;;;;;16.73;3.23;;;;;;;3.31;100.00;100371.00;4934969;57;1138770;-67
2023/01/31 12:02:40;;;;;;;9.10;2.33;;;;;;;3.29;100.00;100358.01;4961239;57;1138815;-67
2023/01/31 12:07:52;;;;;;;15.98;2.80;;;;;;;3.25;100.00;100359.08;4978403;57;1136970;-66
2023/01/31 12:13:06;;;;;;;14.07;2.93;;;;;;;3.27;100.00;100353.78;4952856;57;1138787;-68
2023/01/31 12:18:12;;;;;;;14.65;3.80;;;;;;;3.25;100.00;100346.02;4955634;57;1138716;-66
2023/01/31 12:23:46;;;;;;;8.60;2.17;;;;;;;3.28;100.00;100324.95;4942404;57;1138903;-68
2023/01/31 12:29:10;;;;;;;15.30;4.30;;;;;;;3.35;100.00;100313.73;5031453;56;1136757;-67
2023/01/31 12:35:01;;;;;;;13.08;2.92;;;;;;;3.42;100.00;100298.11;5082127;56;1138839;-65
2023/01/31 12:40:27;;;;;;;21.27;3.95;;;;;;;3.46;100.00;100291.34;4928335;57;1138799;-65
2023/01/31 12:46:13;;;;;;;10.43;2.17;;;;;;;3.57;100.00;100275.55;5089224;56;1138648;-68
2023/01/31 12:51:42;;;;;;;13.98;4.15;;;;;;;3.63;100.00;100267.39;5070996;56;1138851;-67
2023/01/31 12:57:17;;;;;;;7.47;1.73;;;;;;;3.64;100.00;100257.31;5080512;56;1138841;-68
2023/01/31 13:02:39;;;;;;;16.12;3.67;;;;;;;3.62;100.00;100245.62;5087410;56;1136603;-65
2023/01/31 13:07:53;;;;;;;11.83;3.13;;;;;;;3.64;100.00;100239.85;5041839;56;1138834;-65
2023/01/31 13:13:00;;;;;;;7.85;2.02;;;;;;;3.68;100.00;100232.66;5090250;56;1138682;-68
2023/01/31 13:18:09;;;;;;;15.63;2.55;;;;;;;3.69;100.00;100229.12;5088683;56;1136772;-67
2023/01/31 13:23:28;;;;;;;11.25;3.15;;;;;;;3.66;100.00;100217.09;5086450;56;1138826;-65
2023/01/31 13:28:49;;;;;;;7.93;2.07;;;;;;;3.61;100.00;100220.40;5121849;56;1138702;-68
2023/01/31 13:34:11;;;;;;;15.53;3.60;;;;;;;3.47;100.00;100212.45;5129443;56;1137045;-68
2023/01/31 13:39:30;;;;;;;12.10;2.50;;;;;;;3.36;100.00;100215.61;5130647;56;1138709;-67
2023/01/31 13:44:36;;;;;;;13.57;4.37;;;;;;;3.27;100.00;100210.03;5128655;56;1138909;-67
2023/01/31 13:49:52;;;;;;;11.93;2.20;;;;;;;3.17;100.00;100201.84;5144046;56;1138705;-68
2023/01/31 13:55:08;;;;;;;11.77;3.30;;;;;;;3.06;100.00;100178.87;5059315;56;1138776;-67
2023/01/31 14:00:40;;;;;;;15.50;2.83;;;;;;;3.02;100.00;100173.44;5070052;56;1138708;-68
2023/01/31 14:05:53;;;;;;;17.07;3.30;;;;;;;2.98;100.00;100161.45;5117078;56;1138648;-66
2023/01/31 14:11:06;;;;;;;12.47;2.98;;;;;;;2.97;100.00;100153.70;5140376;56;1138992;-69
2023/01/31 14:16:45;;;;;;;11.78;3.80;;;;;;;2.94;100.00;100153.39;5071051;56;1176174;-68
2023/01/31 14:22:05;;;;;;;8.73;2.90;;;;;;;2.89;100.00;100136.29;5088118;56;1184561;-68
2023/01/31 14:27:28;;;;;;;9.60;3.17;;;;;;;2.89;100.00;100138.90;5110245;55;1137082;-69
2023/01/31 14:32:46;;;;;;;9.97;3.53;;;;;;;2.84;100.00;100132.60;5127274;55;1136797;-69
2023/01/31 14:38:38;;;;;;;11.10;3.93;;;;;;;2.84;100.00;100136.52;5121868;55;1136724;-67
2023/01/31 14:44:09;;;;;;;16.07;5.70;;;;;;;2.87;100.00;100136.83;5121861;55;1138646;-68
2023/01/31 14:49:52;;;;;;;5.50;2.37;;;;;;;2.87;100.00;100131.60;5121753;55;1138794;-69
2023/01/31 14:55:19;;;;;;;3.73;2.30;;;;;;;2.82;100.00;100107.87;5115671;56;1136951;-68
2023/01/31 15:00:30;;;;;;;5.42;2.75;;;;;;;2.78;100.00;100102.41;5115320;56;1137060;-67
2023/01/31 15:05:45;;;;;;;6.67;2.13;;;;;;;2.74;100.00;100089.62;5171407;55;1136624;-64
2023/01/31 15:11:05;;;;;;;5.70;3.13;;;;;;;2.70;100.00;100100.68;5113373;56;1251881;-69
2023/01/31 15:16:30;;;;;;;6.67;3.87;;;;;;;2.65;100.00;100091.39;5133876;55;1177516;-69
2023/01/31 15:21:55;;;;;;;9.00;6.13;;;;;;;2.56;100.00;100096.63;5075725;56;1239728;-68
2023/01/31 15:27:06;;;;;;;18.77;8.83;;;;;;;2.51;100.00;100077.74;5203615;55;1253152;-68
2023/01/31 15:32:16;;;;;;;12.77;6.30;;;;;;;2.47;100.00;100075.74;5168834;55;1138564;-69
2023/01/31 15:37:25;;;;;;;9.90;5.00;;;;;;;2.43;100.00;100071.63;5193344;54;1247018;-66
2023/01/31 15:42:34;;;;;;;9.57;4.23;;;;;;;2.45;100.00;100063.23;5215612;55;1253983;-68
2023/01/31 15:47:40;;;;;;;24.50;11.67;;;;;;;2.44;100.00;100056.81;5114085;55;1253786;-69
2023/01/31 15:52:46;;;;;;;6.13;3.70;;;;;;;2.41;100.00;100039.54;5200045;55;1257712;-69
2023/01/31 15:57:56;;;;;;;14.47;6.00;;;;;;;2.42;100.00;100033.41;5196169;55;1136826;-67
2023/01/31 16:03:04;;;;;;;5.50;3.30;;;;;;;2.43;100.00;100032.48;5130714;55;1138874;-68
2023/01/31 16:08:36;;;;;;;7.47;3.33;;;;;;;2.46;100.00;100017.94;5118357;55;1136683;-69
2023/01/31 16:13:43;;;;;;;6.60;3.93;;;;;;;2.51;100.00;100016.41;5136260;55;1136733;-69
2023/01/31 16:18:53;;;;;;;13.13;7.70;;;;;;;2.52;100.00;100003.73;5141878;55;1136708;-70
2023/01/31 16:24:19;;;;;;;7.27;3.37;;;;;;;2.53;100.00;100002.81;5143002;55;1138760;-69
2023/01/31 16:29:34;;;;;;;10.57;4.17;;;;;;;2.57;100.00;99989.14;5119310;55;1136906;-67
2023/01/31 16:34:40;;;;;;;9.63;4.57;;;;;;;2.57;100.00;99970.41;5128972;55;1136770;-69
2023/01/31 16:39:54;;;;;;;10.60;4.03;;;;;;;2.58;100.00;99959.52;5157650;55;1134552;-71
2023/01/31 16:44:56;;;;;;;8.23;4.28;;;;;;;2.61;100.00;99947.58;5119696;55;1136687;-67
2023/01/31 16:50:26;;;;;;;10.83;4.83;;;;;;;2.65;100.00;99944.72;5130016;55;1134605;-71
2023/01/31 16:55:32;;;;;;;12.00;4.67;;;;;;;2.68;100.00;99924.98;5085468;55;1136672;-72
2023/01/31 17:00:40;;;;;;;10.07;3.90;;;;;;;2.70;100.00;99919.68;5148850;55;1136851;-77
2023/01/31 17:05:46;;;;;;;11.80;5.00;;;;;;;2.69;100.00;99916.69;5117269;55;1136758;-75
2023/01/31 17:10:52;;;;;;;11.57;5.10;;;;;;;2.71;100.00;99908.31;5128588;55;1136863;-70
2023/01/31 17:15:58;;;;;;;8.50;4.50;;;;;;;2.71;100.00;99901.78;5146645;55;1136670;-70
2023/01/31 17:21:05;;;;;;;5.73;3.20;;;;;;;2.71;100.00;99888.27;5127601;55;1134743;-69
2023/01/31 17:26:21;;;;;;;12.93;3.60;;;;;;;2.66;100.00;99872.00;5121158;55;1134814;-67
2023/01/31 17:31:28;;;;;;;3.00;2.70;;;;;;;2.67;100.00;99857.19;5115332;55;1136839;-70
2023/01/31 17:36:34;;;;;;;11.53;3.17;;;;;;;2.65;100.00;99845.52;5135806;56;1134750;-69
2023/01/31 17:41:40;;;;;;;10.00;5.57;;;;;;;2.67;100.00;99850.66;5114684;55;1136905;-70
2023/01/31 17:46:47;;;;;;;6.63;2.87;;;;;;;2.67;100.00;99849.35;5162480;55;1136930;-70
2023/01/31 17:51:53;;;;;;;4.07;2.70;;;;;;;2.67;100.00;99841.52;5136193;55;1134524;-67
2023/01/31 17:57:00;;;;;;;8.13;2.50;;;;;;;2.67;100.00;99826.70;5116977;56;1134509;-72
2023/01/31 18:02:05;;;;;;;6.17;3.30;;;;;;;2.67;100.00;99811.03;5116796;56;1134626;-70
2023/01/31 18:07:14;;;;;;;6.13;4.07;;;;;;;2.70;100.00;99822.62;5136327;55;1134592;-67
2023/01/31 18:12:20;;;;;;;3.33;2.60;;;;;;;2.72;100.00;99795.13;5135494;56;1134909;-71
2023/01/31 18:17:26;;;;;;;3.42;2.37;;;;;;;2.72;100.00;99767.70;5115467;56;1134911;-68
2023/01/31 18:22:32;;;;;;;8.10;3.12;;;;;;;2.73;100.00;99768.92;5148001;55;1134867;-70
2023/01/31 18:27:38;;;;;;;7.05;3.22;;;;;;;2.76;100.00;99779.63;5136327;56;1134695;-65
2023/01/31 18:32:44;;;;;;;5.90;4.37;;;;;;;2.79;100.00;99759.41;5116523;56;1134645;-70
2023/01/31 18:37:50;;;;;;;12.10;4.33;;;;;;;2.87;100.00;99754.23;5148538;55;1134706;-68
2023/01/31 18:42:56;;;;;;;8.73;4.00;;;;;;;2.91;100.00;99753.09;5209879;55;1136767;-68
2023/01/31 18:48:02;;;;;;;7.77;3.67;;;;;;;2.97;100.00;99738.39;5177887;55;1134786;-68
2023/01/31 18:53:08;;;;;;;7.50;3.00;;;;;;;3.02;100.00;99728.05;5199052;55;1134638;-70
2023/01/31 18:58:15;;;;;;;9.08;3.87;;;;;;;3.06;100.00;99716.47;5196611;55;1134618;-69
2023/01/31 19:03:20;;;;;;;6.93;3.57;;;;;;;3.11;100.00;99718.81;5217222;55;1134571;-70
2023/01/31 19:08:27;;;;;;;8.77;3.83;;;;;;;3.17;100.00;99703.63;5128593;55;1134775;-68
2023/01/31 19:13:33;;;;;;;12.17;5.07;;;;;;;3.23;100.00;99709.39;5197812;55;1134635;-69
2023/01/31 19:18:41;;;;;;;7.13;4.23;;;;;;;3.27;100.00;99710.90;5217982;55;1136634;-69
2023/01/31 19:23:49;;;;;;;11.60;4.50;;;;;;;3.32;100.00;99703.63;5173436;55;1134633;-69
2023/01/31 19:28:56;;;;;;;7.20;3.97;;;;;;;3.38;100.00;99697.55;5174930;55;1136755;-69
2023/01/31 19:34:05;;;;;;;31.17;12.03;;;;;;;3.42;100.00;99676.83;5162384;55;1134657;-68
2023/01/31 19:39:13;;;;;;;6.63;4.27;;;;;;;3.51;100.00;99671.02;5211005;55;1138811;-69
2023/01/31 19:44:20;;;;;;;12.06;5.14;;;;;;;3.59;100.00;99665.33;5159201;55;1134931;-70
2023/01/31 19:49:26;;;;;;;6.60;4.70;;;;;;;3.65;100.00;99649.73;5141672;55;1136881;-69
2023/01/31 19:54:32;;;;;;;6.37;4.62;;;;;;;3.71;100.00;99644.10;5093609;56;1134960;-68
2023/01/31 19:59:41;;;;;;;3.95;3.62;;;;;;;3.76;100.00;99645.50;5143144;55;1134945;-69
2023/01/31 20:04:46;;;;;;;9.73;2.60;;;;;;;3.79;100.00;99644.00;5174842;55;1134612;-68
2023/01/31 20:09:52;;;;;;;5.60;4.42;;;;;;;3.86;100.00;99639.20;5154351;55;1134705;-71
2023/01/31 20:14:59;;;;;;;6.77;3.97;;;;;;;3.91;100.00;99625.38;5139087;55;1134686;-71
2023/01/31 20:20:07;;;;;;;9.20;5.17;;;;;;;3.95;100.00;99634.70;5160358;55;1134624;-73
2023/01/31 20:25:13;;;;;;;3.10;2.80;;;;;;;3.95;100.00;99626.02;5154837;55;1135024;-70
2023/01/31 20:30:21;;;;;;;1.90;1.80;;;;;;;3.89;100.00;99632.01;5189369;55;1134609;-72
2023/01/31 20:35:27;;;;;;;1.67;1.60;;;;;;;3.81;100.00;99638.21;5175865;55;1134678;-70
2023/01/31 20:40:33;;;;;;;1.87;1.57;;;;;;;3.73;100.00;99631.77;5202074;55;1134704;-71
2023/01/31 20:45:39;;;;;;;2.33;2.10;;;;;;;3.65;100.00;99610.05;5163154;55;1134751;-68
2023/01/31 20:50:57;;;;;;;3.13;2.77;;;;;;;3.66;100.00;99615.66;5153146;55;1134640;-70
2023/01/31 20:56:08;;;;;;;3.50;2.93;;;;;;;3.68;100.00;99601.14;5155555;55;1134793;-69
2023/01/31 21:01:18;;;;;;;10.50;5.07;;;;;;;3.70;100.00;99594.88;5162177;55;1134833;-71
2023/01/31 21:06:27;;;;;;;15.50;7.37;;;;;;;3.74;100.00;99583.77;5091635;55;1136851;-67
2023/01/31 21:11:33;;;;;;;5.87;3.50;;;;;;;3.81;100.00;99585.91;5206480;55;1136640;-69
2023/01/31 21:16:39;;;;;;;3.30;1.92;;;;;;;3.83;100.00;99597.08;5120741;55;1134724;-69
2023/01/31 21:21:44;;;;;;;0.75;0.75;;;;;;;3.84;100.00;99627.53;5118075;55;1134611;-72
2023/01/31 21:26:51;;;;;;;0.60;0.60;;;;;;;3.82;100.00;99621.55;5136215;55;1135019;-67
2023/01/31 21:31:57;;;;;;;5.67;1.37;;;;;;;3.74;100.00;99655.21;5098991;55;1134944;-67
2023/01/31 21:37:03;;;;;;;3.33;1.30;;;;;;;3.65;100.00;99661.03;5115330;55;1135476;-67
2023/01/31 21:42:22;;;;;;;8.63;1.40;;;;;;;3.55;100.00;99667.75;5133965;55;1134723;-68
2023/01/31 21:47:24;;;;;;;3.00;1.27;;;;;;;3.46;100.00;99664.42;5217252;55;1134723;-69
2023/01/31 21:52:30;;;;;;;5.53;1.90;;;;;;;3.41;100.00;99665.16;5118486;55;1134600;-67
2023/01/31 21:57:36;;;;;;;2.20;0.80;;;;;;;3.35;100.00;99662.48;5122774;55;1134745;-68
2023/01/31 22:02:41;;;;;;;8.85;1.20;;;;;;;3.31;100.00;99670.59;5143677;55;1134543;-70
2023/01/31 22:07:47;;;;;;;1.67;0.73;;;;;;;3.25;100.00;99678.79;5109911;55;1134981;-68
2023/01/31 22:12:53;;;;;;;10.00;2.10;;;;;;;3.24;100.00;99682.33;5107424;56;1134617;-71
2023/01/31 22:17:59;;;;;;;5.58;1.50;;;;;;;3.18;100.00;99673.95;5131234;56;1136654;-70
2023/01/31 22:23:05;;;;;;;4.27;0.83;;;;;;;3.09;100.00;99681.48;5111060;56;1134647;-67
2023/01/31 22:28:11;;;;;;;4.47;1.07;;;;;;;3.01;100.00;99688.50;5104900;56;1134770;-69
2023/01/31 22:33:16;;;;;;;7.80;1.13;;;;;;;2.98;100.00;99690.45;5113178;56;1134896;-71
2023/01/31 22:38:22;;;;;;;2.40;1.07;;;;;;;2.90;100.00;99680.47;5129314;56;1179954;-70
2023/01/31 22:43:29;;;;;;;8.63;1.37;;;;;;;2.85;100.00;99697.33;5147700;55;1134981;-68
2023/01/31 22:48:36;;;;;;;5.60;1.13;;;;;;;2.80;100.00;99697.13;5183461;55;1135046;-70
2023/01/31 22:53:42;;;;;;;8.90;1.83;;;;;;;2.72;100.00;99691.53;5152051;55;1134686;-69
2023/01/31 22:58:49;;;;;;;8.38;1.55;;;;;;;2.66;100.00;99689.73;5180708;55;1134691;-68
2023/01/31 23:04:00;;;;;;;8.38;2.10;;;;;;;2.61;100.00;99691.29;5178086;55;1135116;-72
2023/01/31 23:09:06;;;;;;;3.02;0.88;;;;;;;2.58;100.00;99703.70;5127092;55;1134681;-70
2023/01/31 23:14:11;;;;;;;6.33;1.80;;;;;;;2.55;100.00;99702.57;5108478;56;1134653;-70
2023/01/31 23:19:17;;;;;;;15.67;1.73;;;;;;;2.53;100.00;99692.22;5108594;56;1134987;-67
2023/01/31 23:24:23;;;;;;;6.90;1.87;;;;;;;2.54;100.00;99689.14;5133532;56;1137190;-69
2023/01/31 23:29:29;;;;;;;7.57;1.57;;;;;;;2.52;100.00;99697.52;5173893;55;1134588;-69
2023/01/31 23:34:35;;;;;;;13.80;1.90;;;;;;;2.56;100.00;99705.56;5171656;55;1134765;-68